Time;durP1;ratioP1;P1;durP2;ratioP2;P2;SDS_P1;SDS_P2;PMS_P1;PMS_P2;Temp;Humidity;BMP_temperature;BMP_pressure;BME280_temperature;BME280_humidity;BME280_pressure;Samples;Min_cycle;Max_cycle;Signal;HPM_P1;HPM_P2
2021/06/01 00:02:11;;;;;;;;;;;;;;;11.39;100.00;101317.69;5053505;28;20426;-75
2021/06/01 00:04:38;;;;;;;;;;;;;;;11.51;100.00;101310.47;5070694;28;19925;-76
2021/06/01 00:07:04;;;;;;;;;;;;;;;11.48;100.00;101312.56;5053493;28;19929;-75
2021/06/01 00:09:30;;;;;;;;;;;;;;;11.46;100.00;101301.78;5071173;28;19928;-75
2021/06/01 00:11:55;;;;;;;;;;;;;;;11.43;100.00;101302.03;5071321;28;19924;-76
2021/06/01 00:14:21;;;;;;;;;;;;;;;11.36;100.00;101298.91;5071231;28;19924;-75
2021/06/01 00:16:47;;;;;;;;;;;;;;;11.32;100.00;101302.84;5071037;28;19997;-76
2021/06/01 00:19:14;;;;;;;;;;;;;;;11.34;100.00;101302.72;5071223;28;19993;-75
2021/06/01 00:21:41;;;;;;;;;;;;;;;11.38;100.00;101287.91;5070798;28;19931;-74
2021/06/01 00:24:07;;;;;;;;;;;;;;;11.40;100.00;101302.28;5071499;28;19931;-74
2021/06/01 00:26:34;;;;;;;;;;;;;;;11.40;100.00;101296.84;5071422;28;19983;-74
2021/06/01 00:29:00;;;;;;;;;;;;;;;11.41;100.00;101298.59;5071371;28;19924;-74
2021/06/01 00:31:26;;;;;;;;;;;;;;;11.36;100.00;101298.06;5071352;28;19924;-74
2021/06/01 00:33:51;;;;;;;;;;;;;;;11.34;100.00;101294.56;5053279;28;19924;-74
2021/06/01 00:36:17;;;;;;;;;;;;;;;11.41;100.00;101295.88;5071379;28;20339;-74
2021/06/01 00:38:44;;;;;;;;;;;;;;;11.39;100.00;101295.09;5071556;28;19971;-74
2021/06/01 00:41:10;;;;;;;;;;;;;;;11.36;100.00;101298.91;5071327;28;20368;-74
2021/06/01 00:43:36;;;;;;;;;;;;;;;11.27;100.00;101299.59;5071234;28;19939;-74
2021/06/01 00:46:02;;;;;;;;;;;;;;;11.23;100.00;101296.25;5071028;28;19924;-74
2021/06/01 00:48:28;;;;;;;;;;;;;;;11.22;100.00;101294.53;5071201;28;19977;-74
2021/06/01 00:50:54;;;;;;;;;;;;;;;11.20;100.00;101291.03;5070891;28;19932;-74
2021/06/01 00:53:20;;;;;;;;;;;;;;;11.16;100.00;101294.13;5070842;28;19925;-74
2021/06/01 00:55:48;;;;;;;;;;;;;;;11.04;100.00;101295.91;5071122;28;19925;-74
2021/06/01 00:58:13;;;;;;;;;;;;;;;11.00;100.00;101299.81;5070788;28;19952;-74
2021/06/01 01:01:09;;;;;;;;;;;;;;;11.01;100.00;101293.38;5071122;28;20292;-74
2021/06/01 01:03:36;;;;;;;;;;;;;;;11.10;100.00;101300.00;5070632;28;19931;-74
2021/06/01 01:06:05;;;;;;;;;;;;;;;11.07;100.00;101287.50;5071187;28;19924;-74
2021/06/01 01:08:46;;;;;;;;;;;;;;;11.11;100.00;101291.72;5070731;28;19924;-74
2021/06/01 01:11:16;;;;;;;;;;;;;;;11.10;100.00;101290.00;5052665;28;20466;-74
2021/06/01 01:13:43;;;;;;;;;;;;;;;11.12;100.00;101284.47;5070834;28;19950;-74
2021/06/01 01:16:10;;;;;;;;;;;;;;;11.08;100.00;101286.53;5070485;28;20433;-74
2021/06/01 01:18:37;;;;;;;;;;;;;;;10.99;100.00;101288.06;5070833;28;19928;-74
2021/06/01 01:21:07;;;;;;;;;;;;;;;11.07;100.00;101284.78;5070477;28;19932;-74
2021/06/01 01:23:35;;;;;;;;;;;;;;;11.03;100.00;101289.59;5070789;28;19924;-74
2021/06/01 01:26:03;;;;;;;;;;;;;;;11.02;100.00;101281.56;5070830;28;19924;-74
2021/06/01 01:28:37;;;;;;;;;;;;;;;10.98;100.00;101289.09;5072161;28;19924;-74
2021/06/01 01:31:07;;;;;;;;;;;;;;;10.87;100.00;101289.84;5074304;28;19930;-74
2021/06/01 01:33:36;;;;;;;;;;;;;;;10.84;100.00;101294.66;5074328;28;20376;-74
2021/06/01 01:36:03;;;;;;;;;;;;;;;10.80;100.00;101283.16;5074494;28;19924;-74
2021/06/01 01:38:30;;;;;;;;;;;;;;;10.79;100.00;101281.41;5074834;28;19925;-74
2021/06/01 01:40:59;;;;;;;;;;;;;;;10.72;100.00;101275.56;5074423;28;20350;-74
2021/06/01 01:43:28;;;;;;;;;;;;;;;10.73;100.00;101279.16;5074287;28;19999;-74
2021/06/01 01:46:03;;;;;;;;;;;;;;;10.69;100.00;101280.38;5074086;28;20370;-74
2021/06/01 01:51:16;;;;;;;;;;;;;;;10.51;100.00;101282.53;5074167;28;19971;-74
2021/06/01 01:53:47;;;;;;;;;;;;;;;10.44;100.00;101273.97;5074316;28;19925;-74
2021/06/01 01:56:14;;;;;;;;;;;;;;;10.47;100.00;101281.91;5074018;28;19950;-74
2021/06/01 01:58:40;;;;;;;;;;;;;;;10.48;100.00;101271.94;5074365;28;19924;-74
2021/06/01 02:01:06;;;;;;;;;;;;;;;10.47;100.00;101273.75;5074139;28;19925;-74
2021/06/01 02:03:32;;;;;;;;;;;;;;;10.48;100.00;101267.34;5073792;28;19986;-74
2021/06/01 02:05:58;;;;;;;;;;;;;;;10.47;100.00;101265.59;5074205;28;19971;-74
2021/06/01 02:08:25;;;;;;;;;;;;;;;10.43;100.00;101269.53;5073422;28;20379;-74
2021/06/01 02:10:52;;;;;;;;;;;;;;;10.41;100.00;101267.91;5073739;28;19932;-74
2021/06/01 02:13:18;;;;;;;;;;;;;;;10.39;100.00;101268.00;5055908;28;20391;-74
2021/06/01 02:15:44;;;;;;;;;;;;;;;10.39;100.00;101262.59;5073558;28;20053;-74
2021/06/01 02:18:10;;;;;;;;;;;;;;;10.38;100.00;101264.44;5074017;28;19924;-74
2021/06/01 02:20:36;;;;;;;;;;;;;;;10.38;100.00;101256.31;5073635;28;19956;-74
2021/06/01 02:25:54;;;;;;;;;;;;;;;10.41;100.00;101260.66;5073328;28;19960;-74
2021/06/01 02:28:22;;;;;;;;;;;;;;;10.40;100.00;101261.59;5074252;28;19924;-74
2021/06/01 02:30:52;;;;;;;;;;;;;;;10.39;100.00;101262.59;5073789;28;20372;-74
2021/06/01 02:33:19;;;;;;;;;;;;;;;10.41;100.00;101265.19;5073347;28;19931;-74
2021/06/01 02:35:45;;;;;;;;;;;;;;;10.31;100.00;101265.81;5055874;28;19986;-74
2021/06/01 02:38:11;;;;;;;;;;;;;;;10.22;100.00;101271.88;5073329;28;20182;-74
2021/06/01 02:40:37;;;;;;;;;;;;;;;10.23;100.00;101270.91;5073130;28;20382;-74
2021/06/01 02:43:06;;;;;;;;;;;;;;;10.26;100.00;101261.69;5073438;28;19925;-74
2021/06/01 02:45:35;;;;;;;;;;;;;;;10.29;100.00;101261.47;5072959;28;19924;-74
2021/06/01 02:48:01;;;;;;;;;;;;;;;10.31;100.00;101264.94;5073344;28;19932;-72
2021/06/01 02:50:28;;;;;;;;;;;;;;;10.21;100.00;101267.47;5072937;28;19925;-73
2021/06/01 02:52:55;;;;;;;;;;;;;;;10.24;100.00;101256.38;5072996;28;19929;-74
2021/06/01 02:55:21;;;;;;;;;;;;;;;10.26;100.00;101258.97;5072904;28;19935;-74
2021/06/01 02:57:47;;;;;;;;;;;;;;;10.22;100.00;101248.34;5072984;28;20344;-74
2021/06/01 03:00:17;;;;;;;;;;;;;;;10.27;100.00;101241.72;5072716;28;19932;-74
2021/06/01 03:02:42;;;;;;;;;;;;;;;10.27;100.00;101242.59;5072360;28;19977;-74
2021/06/01 03:05:09;;;;;;;;;;;;;;;10.32;100.00;101239.56;5072638;28;19928;-74
2021/06/01 03:07:37;;;;;;;;;;;;;;;10.33;100.00;101244.88;5072647;28;19931;-74
2021/06/01 03:10:04;;;;;;;;;;;;;;;10.30;100.00;101241.50;5072785;28;20308;-74
2021/06/01 03:12:39;;;;;;;;;;;;;;;10.28;100.00;101248.91;5072789;28;19925;-74
2021/06/01 03:15:06;;;;;;;;;;;;;;;10.30;100.00;101246.94;5072349;28;20386;-74
2021/06/01 03:17:33;;;;;;;;;;;;;;;10.30;100.00;101244.22;5072556;28;19924;-74
2021/06/01 03:19:59;;;;;;;;;;;;;;;10.31;100.00;101245.97;5071997;28;20391;-74
2021/06/01 03:22:25;;;;;;;;;;;;;;;10.26;100.00;101256.28;5072385;28;19925;-74
2021/06/01 03:24:50;;;;;;;;;;;;;;;10.35;100.00;101251.06;5072125;28;19978;-74
2021/06/01 03:27:16;;;;;;;;;;;;;;;10.34;100.00;101253.88;5072044;28;19953;-74
2021/06/01 03:29:42;;;;;;;;;;;;;;;10.37;100.00;101253.69;5054376;28;19924;-74
2021/06/01 03:32:08;;;;;;;;;;;;;;;10.45;100.00;101255.84;5071824;28;19924;-74
2021/06/01 03:34:35;;;;;;;;;;;;;;;10.45;100.00;101256.72;5054292;28;19924;-74
2021/06/01 03:37:01;;;;;;;;;;;;;;;10.46;100.00;101249.44;5072057;28;19970;-74
2021/06/01 03:39:28;;;;;;;;;;;;;;;10.51;100.00;101247.25;5071562;28;19925;-74
2021/06/01 03:41:54;;;;;;;;;;;;;;;10.54;100.00;101250.63;5071942;28;20467;-74
2021/06/01 03:44:20;;;;;;;;;;;;;;;10.60;100.00;101243.03;5071640;28;20019;-74
2021/06/01 03:46:46;;;;;;;;;;;;;;;10.64;100.00;101239.09;5071867;28;19977;-74
2021/06/01 03:49:11;;;;;;;;;;;;;;;10.68;100.00;101240.59;5071734;28;20029;-74
2021/06/01 03:51:38;;;;;;;;;;;;;;;10.61;100.00;101244.72;5071217;28;19925;-74
2021/06/01 03:54:04;;;;;;;;;;;;;;;10.66;100.00;101242.56;5071474;28;19982;-74
2021/06/01 03:56:33;;;;;;;;;;;;;;;10.66;100.00;101248.88;5071124;28;19959;-74
2021/06/01 03:58:59;;;;;;;;;;;;;;;10.78;100.00;101235.34;5071744;28;19994;-74
2021/06/01 04:01:25;;;;;;;;;;;;;;;10.85;100.00;101234.78;5071542;28;20346;-74
2021/06/01 04:03:51;;;;;;;;;;;;;;;10.97;100.00;101241.16;5071552;28;20277;-74
2021/06/01 04:06:16;;;;;;;;;;;;;;;11.08;100.00;101237.63;5071614;28;19929;-74
2021/06/01 04:08:43;;;;;;;;;;;;;;;11.23;100.00;101241.88;5071393;28;19924;-74
2021/06/01 04:11:09;;;;;;;;;;;;;;;11.41;100.00;101235.19;5071279;28;20311;-74
2021/06/01 04:13:35;;;;;;;;;;;;;;;11.71;100.00;101243.69;5053123;28;19936;-74
2021/06/01 04:16:01;;;;;;;;;;;;;;;11.93;100.00;101238.41;5070014;28;19931;-74
2021/06/01 04:18:27;;;;;;;;;;;;;;;12.10;100.00;101235.25;5053590;28;20311;-74
2021/06/01 04:20:53;;;;;;;;;;;;;;;12.28;100.00;101230.19;5053318;28;20267;-74
2021/06/01 04:23:18;;;;;;;;;;;;;;;12.52;100.00;101237.34;5071204;28;19931;-74
2021/06/01 04:25:46;;;;;;;;;;;;;;;12.74;100.00;101231.03;5071015;28;19979;-74
2021/06/01 04:28:12;;;;;;;;;;;;;;;12.89;100.00;101226.16;5071848;28;19932;-74
2021/06/01 04:30:38;;;;;;;;;;;;;;;13.08;100.00;101225.50;5071181;28;19925;-75
2021/06/01 04:33:04;;;;;;;;;;;;;;;13.21;100.00;101226.19;5071110;28;19924;-75
2021/06/01 04:35:29;;;;;;;;;;;;;;;13.41;100.00;101225.53;5070954;28;19932;-75
2021/06/01 04:37:55;;;;;;;;;;;;;;;13.49;100.00;101223.84;5073510;28;20322;-75
2021/06/01 04:40:21;;;;;;;;;;;;;;;13.58;100.00;101227.66;5074415;28;19924;-71
2021/06/01 04:42:48;;;;;;;;;;;;;;;13.80;100.00;101221.22;5085881;28;19924;-71
2021/06/01 04:45:15;;;;;;;;;;;;;;;13.97;100.00;101224.34;5088872;28;19924;-71
2021/06/01 04:47:41;;;;;;;;;;;;;;;14.08;100.00;101218.78;5062493;28;19924;-71
2021/06/01 04:50:07;;;;;;;;;;;;;;;14.23;100.00;101225.63;5090696;28;19924;-71
2021/06/01 04:52:33;;;;;;;;;;;;;;;14.36;100.00;101228.13;5083007;28;19924;-72
2021/06/01 04:54:59;;;;;;;;;;;;;;;14.53;100.00;101223.00;5090416;28;19970;-72
2021/06/01 04:57:25;;;;;;;;;;;;;;;14.69;100.00;101223.38;5073860;28;19925;-72
2021/06/01 04:59:52;;;;;;;;;;;;;;;14.87;100.00;101214.50;5070556;28;20311;-72
2021/06/01 05:02:18;;;;;;;;;;;;;;;15.01;100.00;101219.56;5071303;28;19936;-73
2021/06/01 05:04:43;;;;;;;;;;;;;;;15.01;100.00;101215.97;5074617;28;19924;-72
2021/06/01 05:07:12;;;;;;;;;;;;;;;15.07;100.00;101226.31;5086739;28;19967;-73
2021/06/01 05:09:38;;;;;;;;;;;;;;;15.17;100.00;101227.19;5076213;28;19924;-72
2021/06/01 05:12:04;;;;;;;;;;;;;;;15.25;100.00;101228.38;5089307;28;19935;-72
2021/06/01 05:14:30;;;;;;;;;;;;;;;15.44;100.00;101230.25;5076134;28;19924;-72
2021/06/01 05:16:57;;;;;;;;;;;;;;;15.57;100.00;101233.53;5091901;28;19970;-72
2021/06/01 05:19:23;;;;;;;;;;;;;;;15.71;100.00;101237.69;5094392;28;20025;-72
2021/06/01 05:21:49;;;;;;;;;;;;;;;15.82;100.00;101226.63;5079629;28;20303;-73
2021/06/01 05:24:14;;;;;;;;;;;;;;;16.03;100.00;101234.66;5059512;28;19932;-72
2021/06/01 05:26:40;;;;;;;;;;;;;;;16.13;100.00;101228.25;5074034;28;19928;-72
2021/06/01 05:29:06;;;;;;;;;;;;;;;16.32;100.00;101221.88;5074536;28;19986;-73
2021/06/01 05:31:42;;;;;;;;;;;;;;;16.51;100.00;101226.41;5075287;28;20364;-72
2021/06/01 05:34:10;;;;;;;;;;;;;;;16.61;100.00;101231.81;5073532;28;19924;-73
2021/06/01 05:36:36;;;;;;;;;;;;;;;16.78;100.00;101231.00;5074359;28;19925;-73
2021/06/01 05:39:03;;;;;;;;;;;;;;;16.72;100.00;101231.63;5074523;28;19931;-73
2021/06/01 05:41:28;;;;;;;;;;;;;;;16.90;100.00;101216.13;5075244;28;20364;-72
2021/06/01 05:43:54;;;;;;;;;;;;;;;17.02;100.00;101224.13;5077650;28;19924;-73
2021/06/01 05:46:20;;;;;;;;;;;;;;;17.13;100.00;101225.75;5071315;28;19932;-72
2021/06/01 05:48:46;;;;;;;;;;;;;;;17.30;100.00;101226.81;5067461;28;19929;-73
2021/06/01 05:51:13;;;;;;;;;;;;;;;17.49;100.00;101214.78;5070079;28;20404;-73
2021/06/01 05:53:39;;;;;;;;;;;;;;;17.67;100.00;101215.63;5073665;28;20379;-73
2021/06/01 05:56:05;;;;;;;;;;;;;;;17.61;100.00;101213.53;5085840;28;19951;-73
2021/06/01 05:58:30;;;;;;;;;;;;;;;17.80;100.00;101211.59;5072961;28;20376;-72
2021/06/01 06:00:56;;;;;;;;;;;;;;;17.85;100.00;101212.88;5073673;28;19925;-72
2021/06/01 06:03:22;;;;;;;;;;;;;;;18.05;100.00;101213.53;5073448;28;20292;-73
2021/06/01 06:05:48;;;;;;;;;;;;;;;18.09;100.00;101214.06;5074524;28;19925;-72
2021/06/01 06:08:16;;;;;;;;;;;;;;;18.44;100.00;101214.97;5073099;28;19929;-72
2021/06/01 06:10:43;;;;;;;;;;;;;;;18.63;100.00;101207.47;5077296;28;19925;-72
2021/06/01 06:13:10;;;;;;;;;;;;;;;18.70;100.00;101208.53;5054413;28;20473;-72
2021/06/01 06:15:36;;;;;;;;;;;;;;;18.99;100.00;101202.63;5074262;28;19928;-72
2021/06/01 06:18:03;;;;;;;;;;;;;;;19.35;100.00;101202.34;5073569;28;20319;-72
2021/06/01 06:20:29;;;;;;;;;;;;;;;19.44;100.00;101203.22;5068540;28;20024;-72
2021/06/01 06:22:56;;;;;;;;;;;;;;;19.68;100.00;101207.84;5072784;28;19935;-72
2021/06/01 06:25:23;;;;;;;;;;;;;;;19.80;100.00;101200.09;5081271;28;20368;-72
2021/06/01 06:27:49;;;;;;;;;;;;;;;20.26;100.00;101204.13;5093419;28;19931;-72
2021/06/01 06:30:15;;;;;;;;;;;;;;;20.47;100.00;101196.16;5075978;28;19928;-72
2021/06/01 06:32:41;;;;;;;;;;;;;;;20.53;100.00;101192.66;5073618;28;19924;-72
2021/06/01 06:35:07;;;;;;;;;;;;;;;20.49;100.00;101194.06;5072777;28;19968;-71
2021/06/01 06:37:33;;;;;;;;;;;;;;;20.81;100.00;101186.72;5073804;28;19978;-70
2021/06/01 06:40:00;;;;;;;;;;;;;;;21.02;100.00;101188.81;5073068;28;19935;-72
2021/06/01 06:42:27;;;;;;;;;;;;;;;21.13;100.00;101186.69;5083866;28;20379;-72
2021/06/01 06:44:53;;;;;;;;;;;;;;;21.34;100.00;101191.53;5084600;28;20426;-72
2021/06/01 06:47:28;;;;;;;;;;;;;;;21.46;100.00;101183.66;5072549;28;19928;-72
2021/06/01 06:49:54;;;;;;;;;;;;;;;21.49;100.00;101183.31;5091669;28;19924;-72
2021/06/01 06:52:20;;;;;;;;;;;;;;;21.39;99.47;101184.44;5093095;28;19967;-73
2021/06/01 06:54:46;;;;;;;;;;;;;;;21.55;97.52;101177.94;5089195;28;19936;-73
2021/06/01 06:57:12;;;;;;;;;;;;;;;21.82;94.54;101172.84;5056080;28;20106;-73
2021/06/01 06:59:39;;;;;;;;;;;;;;;21.64;94.73;101175.09;5053145;28;20041;-72
2021/06/01 07:02:05;;;;;;;;;;;;;;;21.92;92.48;101169.78;5072125;28;20123;-72
2021/06/01 07:04:31;;;;;;;;;;;;;;;22.18;93.63;101171.22;5085746;28;20014;-72
2021/06/01 07:06:58;;;;;;;;;;;;;;;22.01;88.85;101171.44;5093038;28;19932;-73
2021/06/01 07:09:24;;;;;;;;;;;;;;;22.08;88.03;101174.28;5087929;28;19931;-73
2021/06/01 07:11:50;;;;;;;;;;;;;;;21.89;89.56;101165.50;5072016;28;19925;-72
2021/06/01 07:14:40;;;;;;;;;;;;;;;21.63;90.34;101165.94;5071643;28;19924;-72
2021/06/01 07:17:07;;;;;;;;;;;;;;;21.95;91.01;101163.03;5055487;28;19927;-71
2021/06/01 07:19:33;;;;;;;;;;;;;;;22.55;87.97;101156.47;5091324;28;19931;-72
2021/06/01 07:21:59;;;;;;;;;;;;;;;22.99;80.05;101151.84;5071840;28;19924;-71
2021/06/01 07:24:25;;;;;;;;;;;;;;;22.89;74.04;101143.88;5071292;28;19946;-71
2021/06/01 07:26:51;;;;;;;;;;;;;;;22.63;70.67;101147.19;5070462;28;19989;-72
2021/06/01 07:29:17;;;;;;;;;;;;;;;22.64;67.07;101142.53;5076685;28;19929;-72
2021/06/01 07:31:43;;;;;;;;;;;;;;;22.78;67.57;101136.06;5070813;28;19931;-72
2021/06/01 07:34:10;;;;;;;;;;;;;;;22.87;68.10;101134.91;5075231;28;19939;-71
2021/06/01 07:36:36;;;;;;;;;;;;;;;23.48;65.30;101133.59;5071920;28;19929;-70
2021/06/01 07:39:02;;;;;;;;;;;;;;;23.23;62.32;101131.25;5071114;28;19931;-72
2021/06/01 07:41:28;;;;;;;;;;;;;;;24.05;65.75;101140.00;5077548;28;19932;-71
2021/06/01 07:43:55;;;;;;;;;;;;;;;24.02;57.26;101129.31;5071584;28;19952;-71
2021/06/01 07:46:21;;;;;;;;;;;;;;;24.72;56.36;101136.72;5068918;28;19928;-71
2021/06/01 07:48:46;;;;;;;;;;;;;;;25.23;54.65;101130.63;5060411;28;19970;-71
2021/06/01 07:51:13;;;;;;;;;;;;;;;25.45;51.21;101116.56;5071303;28;19951;-71
2021/06/01 07:53:40;;;;;;;;;;;;;;;26.23;52.51;101118.59;5071004;28;19932;-71
2021/06/01 07:56:07;;;;;;;;;;;;;;;26.99;48.53;101115.22;5070889;28;19929;-69
2021/06/01 07:58:33;;;;;;;;;;;;;;;27.54;46.19;101120.19;5052986;28;19924;-69
2021/06/01 08:00:59;;;;;;;;;;;;;;;27.46;43.98;101117.69;5070812;28;20030;-69
2021/06/01 08:03:25;;;;;;;;;;;;;;;28.03;42.97;101115.66;5070882;28;19925;-69
2021/06/01 08:05:52;;;;;;;;;;;;;;;26.88;44.24;101109.31;5066380;28;19928;-70
2021/06/01 08:08:19;;;;;;;;;;;;;;;27.28;44.98;101115.66;5070437;28;19924;-68
2021/06/01 08:10:45;;;;;;;;;;;;;;;28.08;46.12;101120.53;5070563;28;19928;-73
2021/06/01 08:13:10;;;;;;;;;;;;;;;28.17;41.09;101115.50;5070033;28;20430;-73
2021/06/01 08:15:39;;;;;;;;;;;;;;;28.00;41.61;101109.66;5052563;28;20460;-72
2021/06/01 08:18:05;;;;;;;;;;;;;;;27.41;40.17;101115.59;5070382;28;19986;-74
2021/06/01 08:20:35;;;;;;;;;;;;;;;27.14;43.27;101112.97;5070698;28;19933;-71
2021/06/01 08:23:01;;;;;;;;;;;;;;;26.19;44.43;101111.75;5070667;28;19932;-72
2021/06/01 08:25:29;;;;;;;;;;;;;;;26.34;43.62;101111.47;5052037;28;19931;-71
2021/06/01 08:27:56;;;;;;;;;;;;;;;25.92;42.60;101105.38;5049924;28;19931;-73
2021/06/01 08:30:22;;;;;;;;;;;;;;;25.33;43.13;101096.00;5069750;28;19998;-72
2021/06/01 08:32:48;;;;;;;;;;;;;;;25.71;44.08;101103.72;5070182;28;19931;-71
2021/06/01 08:35:14;;;;;;;;;;;;;;;25.44;43.75;101094.53;5070355;28;19924;-74
2021/06/01 08:37:40;;;;;;;;;;;;;;;25.74;46.67;101093.00;5070019;28;20011;-71
2021/06/01 08:40:07;;;;;;;;;;;;;;;25.50;42.15;101091.75;5052597;28;19935;-73
2021/06/01 08:42:35;;;;;;;;;;;;;;;26.31;44.31;101092.44;5070542;28;20483;-70
2021/06/01 08:45:02;;;;;;;;;;;;;;;25.78;43.94;101087.88;5070545;28;19925;-74
2021/06/01 08:47:29;;;;;;;;;;;;;;;25.64;41.90;101086.19;5070194;28;19924;-74
2021/06/01 08:49:55;;;;;;;;;;;;;;;25.79;41.15;101088.72;5069708;28;19932;-75
2021/06/01 08:52:21;;;;;;;;;;;;;;;26.48;41.82;101080.81;5061897;28;19991;-74
2021/06/01 08:54:47;;;;;;;;;;;;;;;26.61;43.90;101086.31;5064052;28;19924;-75
2021/06/01 08:57:13;;;;;;;;;;;;;;;26.54;40.84;101077.16;5069187;28;19929;-76
2021/06/01 08:59:41;;;;;;;;;;;;;;;26.85;42.62;101075.47;5070003;28;20350;-74
2021/06/01 09:02:06;;;;;;;;;;;;;;;27.06;41.55;101074.25;5070459;28;19943;-75
2021/06/01 09:04:49;;;;;;;;;;;;;;;26.51;39.61;101078.44;5070025;28;19928;-78
2021/06/01 09:07:22;;;;;;;;;;;;;;;26.02;42.74;101080.75;5067474;28;19929;-77
2021/06/01 09:10:01;;;;;;;;;;;;;;;26.02;44.76;101077.97;5070118;28;20023;-75
2021/06/01 09:12:32;;;;;;;;;;;;;;;26.29;41.59;101077.91;5050830;28;19928;-76
2021/06/01 09:15:18;;;;;;;;;;;;;;;26.30;39.75;101073.19;5069355;28;19925;-75
2021/06/01 09:23:13;;;;;;;;;;;;;;;25.31;42.48;101068.44;5068795;28;19929;-75
2021/06/01 09:25:41;;;;;;;;;;;;;;;25.69;40.11;101073.34;5069739;28;19924;-74
2021/06/01 09:28:08;;;;;;;;;;;;;;;26.54;39.50;101064.06;5070103;28;19924;-74
2021/06/01 09:30:36;;;;;;;;;;;;;;;27.12;38.56;101064.97;5052226;28;19967;-76
2021/06/01 09:33:03;;;;;;;;;;;;;;;27.03;38.73;101053.28;5069512;28;19928;-76
2021/06/01 09:35:48;;;;;;;;;;;;;;;27.83;35.21;101053.63;5069418;28;20412;-79
2021/06/01 09:38:14;;;;;;;;;;;;;;;28.52;36.79;101045.06;5071060;28;20388;-76
2021/06/01 09:40:40;;;;;;;;;;;;;;;28.99;33.22;101033.19;5069753;28;19947;-78
2021/06/01 09:43:09;;;;;;;;;;;;;;;28.49;31.20;101029.63;5069693;28;20356;-79
2021/06/01 09:45:37;;;;;;;;;;;;;;;28.17;31.83;101032.63;5070000;28;20307;-77
2021/06/01 09:48:04;;;;;;;;;;;;;;;29.07;34.97;101027.25;5069330;28;19970;-76
2021/06/01 09:50:34;;;;;;;;;;;;;;;29.02;34.00;101032.72;5073034;28;19925;-75
2021/06/01 09:53:02;;;;;;;;;;;;;;;29.10;33.59;101011.94;5073213;28;19925;-75
2021/06/01 09:55:32;;;;;;;;;;;;;;;28.66;31.77;101018.69;5073519;28;19931;-74
2021/06/01 09:57:58;;;;;;;;;;;;;;;28.39;33.27;101030.22;5073395;28;19963;-77
2021/06/01 10:00:25;;;;;;;;;;;;;;;27.40;32.48;101019.97;5073078;28;19936;-75
2021/06/01 10:02:55;;;;;;;;;;;;;;;27.13;34.07;101018.50;5073041;28;19931;-74
2021/06/01 10:05:21;;;;;;;;;;;;;;;26.73;35.29;101014.09;5072791;28;19939;-74
2021/06/01 10:07:48;;;;;;;;;;;;;;;26.86;34.65;101011.22;5072437;28;19935;-75
2021/06/01 10:10:18;;;;;;;;;;;;;;;26.52;32.02;101012.50;5072353;28;19935;-74
2021/06/01 10:12:45;;;;;;;;;;;;;;;26.47;33.35;101013.19;5071835;28;19924;-74
2021/06/01 10:15:12;;;;;;;;;;;;;;;26.06;32.11;101011.69;5070820;28;19924;-75
2021/06/01 10:17:38;;;;;;;;;;;;;;;25.84;32.85;101009.16;5072778;28;19971;-77
2021/06/01 10:20:06;;;;;;;;;;;;;;;26.10;34.06;101015.72;5072443;28;19928;-76
2021/06/01 10:22:32;;;;;;;;;;;;;;;25.90;31.88;101005.50;5073155;28;19924;-74
2021/06/01 10:24:58;;;;;;;;;;;;;;;25.79;31.50;101005.31;5072664;28;19951;-75
2021/06/01 10:27:24;;;;;;;;;;;;;;;25.85;30.58;101013.63;5072808;28;20058;-74
2021/06/01 10:29:50;;;;;;;;;;;;;;;25.44;31.00;101008.41;5072884;28;20406;-75
2021/06/01 10:32:16;;;;;;;;;;;;;;;25.39;30.14;101006.28;5071919;28;19928;-75
2021/06/01 10:34:43;;;;;;;;;;;;;;;25.57;32.45;101008.38;5071733;28;19970;-78
2021/06/01 10:42:44;;;;;;;;;;;;;;;27.05;31.54;101002.91;5072703;28;19931;-77
2021/06/01 10:50:57;;;;;;;;;;;;;;;26.50;29.26;100992.41;5072080;28;20409;-75
2021/06/01 10:53:25;;;;;;;;;;;;;;;27.06;30.49;100999.91;5071748;28;19932;-76
2021/06/01 10:55:59;;;;;;;;;;;;;;;27.97;29.76;100990.19;5070777;28;20390;-75
2021/06/01 10:58:28;;;;;;;;;;;;;;;28.55;27.89;100984.03;5072656;28;19986;-75
2021/06/01 11:04:05;;;;;;;;;;;;;;;28.72;26.93;100991.72;5053403;28;20388;-75
2021/06/01 11:06:59;;;;;;;;;;;;;;;28.16;27.77;100980.72;5054631;28;19963;-76
2021/06/01 11:09:45;;;;;;;;;;;;;;;27.54;30.66;100990.03;5072201;28;19924;-74
2021/06/01 11:12:26;;;;;;;;;;;;;;;27.68;27.04;100978.72;5072139;28;19931;-74
2021/06/01 11:14:54;;;;;;;;;;;;;;;27.62;29.33;100988.88;5071235;28;20069;-75
2021/06/01 11:17:31;;;;;;;;;;;;;;;26.87;28.68;100982.28;5054270;28;19929;-75
2021/06/01 11:20:00;;;;;;;;;;;;;;;27.15;28.84;100986.56;5072451;28;19924;-75
2021/06/01 11:22:35;;;;;;;;;;;;;;;27.21;28.82;100980.03;5054267;28;20411;-76
2021/06/01 11:28:56;;;;;;;;;;;;;;;26.91;26.83;100982.66;5054372;28;20415;-75
2021/06/01 11:33:41;;;;;;;;;;;;;;;26.59;29.62;100970.69;5071541;28;20437;-76
2021/06/01 11:36:10;;;;;;;;;;;;;;;25.71;26.88;100976.69;5072125;28;19959;-76
2021/06/01 11:38:40;;;;;;;;;;;;;;;25.30;26.66;100961.19;5071917;28;19982;-75
2021/06/01 11:43:52;;;;;;;;;;;;;;;26.92;26.34;100976.03;5071692;28;20019;-74
2021/06/01 11:46:26;;;;;;;;;;;;;;;27.02;23.66;100967.19;5071080;28;19925;-74
2021/06/01 11:51:37;;;;;;;;;;;;;;;26.32;23.39;100965.31;5071253;28;19935;-73
2021/06/01 11:54:05;;;;;;;;;;;;;;;25.71;25.19;100973.09;5071446;28;19925;-75
2021/06/01 11:56:34;;;;;;;;;;;;;;;26.83;24.66;100966.25;5071627;28;19924;-76
2021/06/01 12:04:33;;;;;;;;;;;;;;;28.11;21.86;100966.59;5070812;28;19956;-75
2021/06/01 12:12:44;;;;;;;;;;;;;;;27.50;23.90;100966.50;5070614;28;19924;-76
2021/06/01 12:18:00;;;;;;;;;;;;;;;28.01;22.56;100955.19;5070832;28;19986;-76
2021/06/01 12:20:25;;;;;;;;;;;;;;;27.62;21.33;100958.22;5070700;28;20015;-76
2021/06/01 12:22:51;;;;;;;;;;;;;;;27.67;20.65;100954.72;5052564;28;20291;-76
2021/06/01 12:25:19;;;;;;;;;;;;;;;27.58;21.94;100951.41;5070848;28;19929;-75
2021/06/01 12:27:58;;;;;;;;;;;;;;;27.11;22.03;100946.31;5070710;28;19978;-76
2021/06/01 12:33:09;;;;;;;;;;;;;;;27.63;23.49;100948.75;5070747;28;19970;-76
2021/06/01 12:35:51;;;;;;;;;;;;;;;28.05;21.94;100946.09;5052785;28;19951;-76
2021/06/01 12:43:57;;;;;;;;;;;;;;;28.73;22.82;100957.13;5052728;28;20395;-77
2021/06/01 12:46:35;;;;;;;;;;;;;;;29.46;21.87;100938.19;5070458;28;19936;-76
2021/06/01 13:08:46;;;;;;;;;;;;;;;30.63;21.13;100939.97;5078979;28;19993;-77
2021/06/01 13:14:24;;;;;;;;;;;;;;;29.53;22.31;100938.06;5039803;28;19924;-77
2021/06/01 13:19:38;;;;;;;;;;;;;;;28.10;25.20;100925.88;5080944;28;20085;-77
2021/06/01 13:22:42;;;;;;;;;;;;;;;28.00;22.43;100922.75;5073760;28;20332;-77
2021/06/01 13:30:58;;;;;;;;;;;;;;;27.35;26.32;100926.97;5064443;28;20360;-75
2021/06/01 13:36:30;;;;;;;;;;;;;;;27.47;24.70;100927.94;5073032;28;19986;-76
2021/06/01 13:38:58;;;;;;;;;;;;;;;27.50;26.35;100924.69;5053962;28;19924;-76
2021/06/01 13:47:01;;;;;;;;;;;;;;;28.43;25.55;100921.72;5070015;28;19928;-76
2021/06/01 13:49:35;;;;;;;;;;;;;;;29.15;24.43;100919.88;5075845;28;19985;-73
2021/06/01 13:57:34;;;;;;;;;;;;;;;28.23;23.90;100908.94;5075895;28;19924;-75
2021/06/01 14:00:12;;;;;;;;;;;;;;;28.59;25.59;100917.38;5075534;28;19925;-76
2021/06/01 14:11:31;;;;;;;;;;;;;;;27.11;26.37;100921.25;5090726;28;19924;-76
2021/06/01 14:30:55;;;;;;;;;;;;;;;25.30;31.00;100918.66;5073481;28;20085;-76
2021/06/01 15:04:26;;;;;;;;;;;;;;;25.16;39.16;100901.16;5072625;28;19931;-76
2021/06/01 15:29:01;;;;;;;;;;;;;;;21.69;78.83;100929.56;5072144;28;19970;-77
2021/06/01 15:31:43;;;;;;;;;;;;;;;21.69;75.80;100926.78;5071810;28;20358;-77
2021/06/01 15:48:00;;;;;;;;;;;;;;;22.78;73.48;100922.16;5071206;28;20297;-72
2021/06/01 15:50:35;;;;;;;;;;;;;;;22.73;68.44;100920.88;5071517;28;19928;-71
2021/06/01 16:23:50;;;;;;;;;;;;;;;23.13;61.20;100892.66;5073216;28;20002;-75